createdAt,value
2022-10-17T00:05:53.286Z,71.01
2022-10-17T00:15:55.931Z,71.26
2022-10-17T00:25:58.984Z,72.15
2022-10-17T00:36:10.176Z,72.15
2022-10-17T00:46:11.608Z,72.22
2022-10-17T00:56:15.627Z,72.04
2022-10-17T01:06:18.607Z,72.32
2022-10-17T01:16:22.994Z,72.51
2022-10-17T01:27:13.221Z,72.66
2022-10-17T01:37:30.798Z,72.27
2022-10-17T01:47:33.856Z,72.17
2022-10-17T01:57:45.020Z,72.16
2022-10-17T02:07:46.857Z,72.26
2022-10-17T02:18:15.908Z,72.34
2022-10-17T02:28:29.760Z,72.43
2022-10-17T02:38:34.293Z,72.93
2022-10-17T02:48:48.727Z,72.90
2022-10-17T02:58:54.728Z,73.19
2022-10-17T03:08:56.312Z,73.50
2022-10-17T03:18:57.984Z,73.22
2022-10-17T03:29:00.030Z,73.45
2022-10-17T03:39:03.814Z,73.35
2022-10-17T03:49:06.242Z,73.77
2022-10-17T03:59:14.391Z,73.52
2022-10-17T04:09:18.349Z,74.17
2022-10-17T04:19:32.371Z,74.45
2022-10-17T04:29:34.229Z,74.54
2022-10-17T04:39:44.139Z,74.69
2022-10-17T04:49:46.020Z,74.61
2022-10-17T04:59:49.417Z,75.16
2022-10-17T05:10:02.757Z,74.83
2022-10-17T05:20:06.542Z,74.82
2022-10-17T05:30:09.890Z,75.27
2022-10-17T05:40:12.846Z,75.36
2022-10-17T05:50:15.400Z,75.13
2022-10-17T06:00:33.968Z,75.06
2022-10-17T06:10:35.765Z,75.04
2022-10-17T06:20:38.522Z,74.92
2022-10-17T06:30:42.468Z,75.18
2022-10-17T06:40:44.363Z,74.71
2022-10-17T06:50:45.994Z,74.14
2022-10-17T07:00:51.860Z,74.09
2022-10-17T07:10:55.519Z,73.01
2022-10-17T07:20:57.035Z,71.55
2022-10-17T07:31:04.832Z,70.32
2022-10-17T07:41:08.594Z,67.87
2022-10-17T07:51:10.540Z,66.99
2022-10-17T08:01:15.488Z,64.56
2022-10-17T08:11:17.903Z,62.81
2022-10-17T08:21:19.514Z,61.13
2022-10-17T08:31:21.837Z,58.80
2022-10-17T08:41:46.746Z,53.34
2022-10-17T08:51:58.827Z,53.19
2022-10-17T09:02:12.105Z,54.33
2022-10-17T09:12:22.698Z,52.38
2022-10-17T09:22:28.070Z,46.68
2022-10-17T09:32:29.738Z,30.39
2022-10-17T09:42:31.751Z,28.33
2022-10-17T09:52:36.816Z,33.46
2022-10-17T10:02:40.852Z,30.04
2022-10-17T10:12:54.406Z,25.60
2022-10-17T10:23:17.673Z,23.46
2022-10-17T10:33:21.927Z,22.08
2022-10-17T10:43:40.324Z,21.06
2022-10-17T10:54:06.562Z,22.32
2022-10-17T11:04:39.742Z,25.06
2022-10-17T11:14:55.504Z,30.93
2022-10-17T11:25:04.252Z,34.49
2022-10-17T11:35:16.588Z,36.70
2022-10-17T11:45:22.075Z,37.96
2022-10-17T11:55:26.489Z,39.23
2022-10-17T12:05:57.412Z,39.53
2022-10-17T12:16:21.388Z,38.53
2022-10-17T12:26:28.353Z,38.22
2022-10-17T12:36:29.761Z,38.43
2022-10-17T12:47:09.869Z,38.76
2022-10-17T12:57:23.702Z,37.59
2022-10-17T13:07:25.356Z,37.85
2022-10-17T13:17:30.730Z,38.65
2022-10-17T13:27:34.890Z,38.51
2022-10-17T13:37:37.596Z,38.58
2022-10-17T13:47:39.698Z,39.55
2022-10-17T13:57:41.269Z,40.03
2022-10-17T14:08:10.483Z,40.36
2022-10-17T14:18:29.874Z,41.71
2022-10-17T14:28:35.692Z,43.04
2022-10-17T14:38:37.328Z,43.86
2022-10-17T14:48:39.270Z,44.99
2022-10-17T14:58:40.698Z,45.88
2022-10-17T15:18:49.436Z,46.83
2022-10-17T15:28:51.702Z,47.97
2022-10-17T15:38:55.568Z,49.01
2022-10-17T15:49:02.767Z,50.09
2022-10-17T15:59:07.788Z,51.59
2022-10-17T16:09:09.905Z,52.89
2022-10-17T16:19:11.428Z,54.57
2022-10-17T16:29:12.918Z,56.17
2022-10-17T16:39:14.451Z,57.28
2022-10-17T16:49:18.164Z,58.47
2022-10-17T16:59:19.629Z,59.33
2022-10-17T17:09:21.386Z,60.57
2022-10-17T17:19:22.829Z,61.27
2022-10-17T17:29:24.963Z,62.00
2022-10-17T17:39:26.555Z,62.84
2022-10-17T17:49:28.239Z,63.36
2022-10-17T17:59:31.140Z,64.21
2022-10-17T18:09:32.662Z,64.79
2022-10-17T18:19:34.367Z,64.88
2022-10-17T18:29:35.946Z,66.09
2022-10-17T18:39:38.242Z,66.16
2022-10-17T18:49:39.704Z,66.30
2022-10-17T18:59:41.176Z,66.53
2022-10-17T19:09:42.958Z,67.01
2022-10-17T19:19:44.507Z,67.20
2022-10-17T19:29:46.036Z,68.38
2022-10-17T19:39:49.174Z,68.12
2022-10-17T19:49:50.684Z,68.29
2022-10-17T19:59:55.122Z,68.61
2022-10-17T20:09:57.545Z,68.55
2022-10-17T20:19:59.028Z,68.92
2022-10-17T20:30:02.103Z,69.63
2022-10-17T20:40:32.850Z,70.17
2022-10-17T20:50:26.990Z,69.83
2022-10-17T21:00:28.476Z,69.99
2022-10-17T21:10:35.507Z,69.69
2022-10-17T21:20:37.666Z,69.96
2022-10-17T21:30:39.114Z,70.53
2022-10-17T21:40:40.538Z,70.39
2022-10-17T21:50:42.030Z,70.29
2022-10-17T22:00:43.514Z,70.40
2022-10-17T22:10:44.954Z,70.52
2022-10-17T22:20:46.481Z,70.60
2022-10-17T22:30:48.084Z,70.72
2022-10-17T22:40:49.536Z,70.60
2022-10-17T22:50:52.025Z,71.43
2022-10-17T23:00:54.558Z,71.20
2022-10-17T23:10:56.369Z,71.38
2022-10-17T23:20:57.967Z,72.00
2022-10-17T23:31:07.723Z,72.05
2022-10-17T23:41:09.673Z,71.58
2022-10-17T23:51:11.207Z,71.50
